Dennison, Ohio
Current Conditions -  °F | °C
As of 12:10 AM on Friday 28 Nov 2014 (Local Time) from KPHD Reporting Station
Overcast Overcast  
Wind Chill: 22°   Ceiling: 2900
Heat Index: 30°   Visibility: 10mi
Dew Point: 22°   Wind: 8mph
Humidity: 72%   Direction: 290°WNW
Pressure: 30.27"   Gusts: NA
Location:  40.39°N, 81.33°W
Report Text: KPHD 280510Z AUTO 29007KT 10SM BKN029 BKN038 OVC080 M01/M06 A3027 RMK AO2 T10111056
Loading
Personal Weather Stations






























Interactive Weather Map New forecast layout! Learn more

10-Day Weather Forecast

Advertisements
Track Severe Weather on mobile